Time;durP1;ratioP1;P1;durP2;ratioP2;P2;SDS_P1;SDS_P2;PMS_P1;PMS_P2;Temp;Humidity;BMP_temperature;BMP_pressure;BME280_temperature;BME280_humidity;BME280_pressure;Samples;Min_cycle;Max_cycle;Signal;HPM_P1;HPM_P2
2021/03/25 00:01:35;;;;;;;101.25;52.17;;;;;;;4.13;95.01;101164.41;4991858;28;20053;-50
2021/03/25 00:04:02;;;;;;;94.40;49.75;;;;;;;3.97;94.90;101169.34;4989401;28;20054;-50
2021/03/25 00:06:29;;;;;;;93.38;48.53;;;;;;;4.06;95.24;101169.88;4992053;28;20405;-53
2021/03/25 00:08:56;;;;;;;101.32;49.17;;;;;;;3.92;95.38;101171.59;4990343;28;20225;-49
2021/03/25 00:11:22;;;;;;;102.53;52.08;;;;;;;3.84;95.50;101165.22;4990976;28;20671;-53
2021/03/25 00:13:49;;;;;;;94.95;48.72;;;;;;;3.91;95.41;101158.84;4990056;28;20050;-54
2021/03/25 00:16:16;;;;;;;102.85;51.53;;;;;;;3.88;95.50;101166.25;4989817;28;20056;-50
2021/03/25 00:18:43;;;;;;;92.72;47.83;;;;;;;4.05;94.62;101156.34;4990638;28;20428;-47
2021/03/25 00:21:10;;;;;;;97.90;48.47;;;;;;;4.02;93.91;101160.34;4990007;28;20050;-54
2021/03/25 00:23:38;;;;;;;100.13;49.25;;;;;;;4.11;94.54;101160.88;4993656;28;20053;-50
2021/03/25 00:26:05;;;;;;;92.97;46.85;;;;;;;3.99;94.21;101155.13;4989394;28;20424;-51
2021/03/25 00:28:32;;;;;;;97.60;49.33;;;;;;;3.72;95.35;101159.41;4989913;28;20417;-52
2021/03/25 00:30:58;;;;;;;95.53;48.22;;;;;;;3.78;95.32;101154.69;4991359;28;20074;-54
2021/03/25 00:33:25;;;;;;;93.88;47.75;;;;;;;3.65;95.95;101149.66;4991487;28;20039;-48
2021/03/25 00:35:51;;;;;;;97.47;48.08;;;;;;;3.93;95.24;101152.19;4989186;28;20464;-52
2021/03/25 00:38:19;;;;;;;95.68;48.10;;;;;;;3.91;94.92;101152.13;4989972;28;20038;-52
2021/03/25 00:40:48;;;;;;;97.07;49.42;;;;;;;3.65;95.62;101148.03;4989657;28;20046;-52
2021/03/25 00:43:19;;;;;;;97.30;49.47;;;;;;;3.41;96.72;101149.03;4990704;28;20049;-47
2021/03/25 00:45:47;;;;;;;94.80;47.85;;;;;;;3.30;97.04;101149.28;4996346;28;20504;-52
2021/03/25 00:48:16;;;;;;;96.15;47.88;;;;;;;3.48;98.16;101139.41;4990075;28;20050;-52
2021/03/25 00:50:54;;;;;;;90.85;46.38;;;;;;;3.78;95.91;101145.44;4989981;28;20046;-53
2021/03/25 00:53:26;;;;;;;101.82;47.28;;;;;;;3.92;94.88;101140.31;4989957;28;20519;-50
2021/03/25 00:55:53;;;;;;;99.68;48.67;;;;;;;3.65;95.51;101145.50;4988398;28;20093;-53
2021/03/25 00:58:19;;;;;;;93.75;45.22;;;;;;;3.49;96.59;101146.22;4989721;28;20053;-54
2021/03/25 01:00:47;;;;;;;88.43;44.55;;;;;;;3.75;96.24;101140.22;4989272;28;20507;-53
2021/03/25 01:03:16;;;;;;;91.90;47.47;;;;;;;3.61;95.88;101145.22;4990407;28;20042;-51
2021/03/25 01:05:44;;;;;;;95.68;44.97;;;;;;;3.85;95.24;101139.09;4989902;28;20050;-53
2021/03/25 01:08:11;;;;;;;93.28;47.28;;;;;;;3.36;96.78;101141.16;4988721;28;20131;-50
2021/03/25 01:10:43;;;;;;;85.35;44.83;;;;;;;3.34;96.84;101137.69;4991139;28;20096;-51
2021/03/25 01:13:14;;;;;;;91.63;45.20;;;;;;;3.53;96.59;101139.69;4988233;28;20053;-49
2021/03/25 01:15:42;;;;;;;83.97;43.70;;;;;;;3.36;96.51;101136.09;4990653;28;20112;-53
2021/03/25 01:18:09;;;;;;;81.85;44.67;;;;;;;3.05;97.79;101140.91;4988431;28;20050;-55
2021/03/25 01:20:41;;;;;;;91.03;44.92;;;;;;;2.86;98.75;101135.47;4990433;28;20484;-48
2021/03/25 01:23:08;;;;;;;91.13;48.05;;;;;;;2.93;99.42;101135.09;4988418;28;20073;-54
2021/03/25 01:25:36;;;;;;;96.75;46.60;;;;;;;2.62;100.00;101134.78;4990343;28;20162;-52
2021/03/25 01:28:05;;;;;;;94.50;47.33;;;;;;;2.51;100.00;101136.63;4988321;28;20055;-52
2021/03/25 01:30:33;;;;;;;103.65;47.80;;;;;;;2.48;100.00;101131.38;4988263;28;20057;-50
2021/03/25 01:33:01;;;;;;;110.35;48.95;;;;;;;2.41;100.00;101129.22;4996930;28;20042;-52
2021/03/25 01:35:29;;;;;;;96.00;47.80;;;;;;;2.51;100.00;101134.09;4993399;28;20042;-51
2021/03/25 01:37:55;;;;;;;93.10;46.70;;;;;;;2.69;100.00;101124.31;4992389;28;20046;-51
2021/03/25 01:40:30;;;;;;;95.00;47.35;;;;;;;2.51;100.00;101132.44;4993810;28;20042;-49
2021/03/25 01:43:20;;;;;;;95.32;47.60;;;;;;;2.30;100.00;101125.97;4992462;28;20038;-52
2021/03/25 01:45:55;;;;;;;102.50;50.08;;;;;;;2.17;100.00;101131.91;4994605;28;20050;-52
2021/03/25 01:48:26;;;;;;;101.43;49.25;;;;;;;2.15;100.00;101125.84;4997688;28;20058;-53
2021/03/25 01:50:58;;;;;;;114.88;52.90;;;;;;;2.12;100.00;101124.75;4992283;28;20046;-51
2021/03/25 01:53:55;;;;;;;95.53;45.90;;;;;;;2.26;100.00;101127.41;4993652;28;20069;-49
2021/03/25 01:56:33;;;;;;;91.68;45.38;;;;;;;2.25;100.00;101120.63;4992836;28;20065;-51
2021/03/25 01:59:18;;;;;;;100.22;48.05;;;;;;;2.24;100.00;101120.53;4991710;28;20889;-53
2021/03/25 02:01:54;;;;;;;96.75;47.38;;;;;;;2.22;100.00;101122.97;4994280;28;20049;-52
2021/03/25 02:04:43;;;;;;;98.68;48.63;;;;;;;1.96;100.00;101116.19;4995487;28;20053;-54
2021/03/25 02:07:19;;;;;;;100.78;46.97;;;;;;;1.91;100.00;101116.66;4991860;28;20051;-53
2021/03/25 02:10:05;;;;;;;110.05;51.30;;;;;;;1.82;100.00;101108.47;4994512;28;20046;-52
2021/03/25 02:12:54;;;;;;;112.65;48.85;;;;;;;1.75;100.00;101113.06;4996344;28;20050;-52
2021/03/25 02:15:46;;;;;;;110.25;50.85;;;;;;;1.72;100.00;101110.38;4992672;28;20050;-48
2021/03/25 02:18:26;;;;;;;106.53;46.58;;;;;;;1.72;100.00;101109.50;4991904;28;20160;-49
2021/03/25 02:21:04;;;;;;;102.25;49.63;;;;;;;1.76;100.00;101112.31;4991654;28;20058;-52
2021/03/25 02:23:55;;;;;;;102.72;45.95;;;;;;;1.80;100.00;101115.91;4994037;28;20038;-51
2021/03/25 02:26:31;;;;;;;105.72;46.97;;;;;;;1.74;100.00;101113.84;4992404;28;20488;-52
2021/03/25 02:29:33;;;;;;;;;;;;;;;1.72;100.00;101109.50;4991988;28;20485;-47
2021/03/25 02:32:06;;;;;;;95.68;43.33;;;;;;;1.74;100.00;101112.97;4921546;29;19927;-52
2021/03/25 02:34:40;;;;;;;102.88;45.92;;;;;;;1.69;100.00;101114.31;4981803;28;20057;-53
2021/03/25 02:37:14;;;;;;;95.68;46.15;;;;;;;1.79;100.00;101114.16;4991378;28;20763;-52
2021/03/25 02:39:52;;;;;;;105.10;47.25;;;;;;;1.71;100.00;101107.72;4993618;28;20773;-49
2021/03/25 02:42:25;;;;;;;100.43;45.05;;;;;;;1.71;100.00;101113.66;4992310;28;20500;-48
2021/03/25 02:45:13;;;;;;;106.22;46.92;;;;;;;1.68;100.00;101112.56;4991501;28;20788;-50
2021/03/25 02:47:41;;;;;;;103.85;47.72;;;;;;;1.64;100.00;101114.00;4992910;28;20044;-48
2021/03/25 02:50:17;;;;;;;104.68;46.63;;;;;;;1.58;100.00;101112.72;4991208;28;20145;-52
2021/03/25 02:52:53;;;;;;;102.75;47.15;;;;;;;1.57;100.00;101106.78;4993563;28;20042;-51
2021/03/25 02:55:20;;;;;;;101.35;46.10;;;;;;;1.58;100.00;101106.03;4992279;28;20417;-52
2021/03/25 02:58:01;;;;;;;107.47;47.17;;;;;;;1.51;100.00;101101.31;4991987;28;20049;-49
2021/03/25 03:00:37;;;;;;;104.18;47.90;;;;;;;1.47;100.00;101106.94;4995937;28;20072;-48
2021/03/25 03:03:16;;;;;;;108.80;48.30;;;;;;;1.42;100.00;101099.03;4990898;28;20049;-51
2021/03/25 03:05:44;;;;;;;96.40;45.97;;;;;;;1.61;100.00;101105.34;4995335;28;20479;-53
2021/03/25 03:08:20;;;;;;;96.13;46.05;;;;;;;1.71;100.00;101105.19;4991044;28;20046;-48
2021/03/25 03:10:52;;;;;;;93.47;43.40;;;;;;;1.68;100.00;101112.56;4993533;28;20046;-54
2021/03/25 03:13:22;;;;;;;89.80;42.45;;;;;;;1.50;100.00;101108.03;4993927;28;20050;-49
2021/03/25 03:15:59;;;;;;;101.50;45.45;;;;;;;1.52;100.00;101108.97;4991161;28;20634;-51
2021/03/25 03:18:32;;;;;;;100.85;46.78;;;;;;;1.39;100.00;101116.50;4992575;28;20812;-52
2021/03/25 03:21:03;;;;;;;110.35;47.58;;;;;;;1.31;100.00;101105.00;4990873;28;20467;-49
2021/03/25 03:23:32;;;;;;;100.30;46.40;;;;;;;1.46;100.00;101110.22;4992890;28;20042;-49
2021/03/25 03:26:05;;;;;;;98.72;46.30;;;;;;;1.36;100.00;101102.81;4990503;28;20042;-55
2021/03/25 03:28:39;;;;;;;107.07;47.53;;;;;;;1.27;100.00;101114.00;4992509;28;20042;-50
2021/03/25 03:31:12;;;;;;;102.50;46.50;;;;;;;1.25;100.00;101105.47;4990654;28;20050;-48
2021/03/25 03:33:45;;;;;;;106.22;45.80;;;;;;;1.28;100.00;101112.34;4996369;28;20055;-52
2021/03/25 03:36:21;;;;;;;96.47;43.08;;;;;;;1.50;100.00;101110.53;4997052;28;20096;-52
2021/03/25 03:39:01;;;;;;;96.90;44.40;;;;;;;1.48;100.00;101111.22;4991967;28;20048;-53
2021/03/25 03:41:33;;;;;;;95.65;45.00;;;;;;;1.41;100.00;101109.03;4992423;28;20049;-50
2021/03/25 03:44:06;;;;;;;93.75;42.40;;;;;;;1.30;100.00;101112.47;4990232;28;20043;-50
2021/03/25 03:46:35;;;;;;;100.25;44.60;;;;;;;1.24;100.00;101113.78;4992172;28;20045;-49
2021/03/25 03:49:13;;;;;;;100.38;43.20;;;;;;;1.39;100.00;101119.03;4990277;28;20050;-52
2021/03/25 03:51:46;;;;;;;100.90;44.92;;;;;;;1.62;100.00;101118.09;4992497;28;20766;-51
2021/03/25 03:54:14;;;;;;;92.25;41.95;;;;;;;1.75;100.00;101114.72;4990245;28;20053;-52
2021/03/25 03:56:59;;;;;;;96.85;42.70;;;;;;;1.90;100.00;101113.25;4991378;28;20776;-50
2021/03/25 03:59:30;;;;;;;89.50;43.20;;;;;;;1.56;100.00;101111.72;4994329;28;20493;-53
2021/03/25 04:02:10;;;;;;;97.10;43.83;;;;;;;1.32;100.00;101108.41;4990182;28;20045;-51
2021/03/25 04:04:40;;;;;;;97.93;44.97;;;;;;;1.07;100.00;101120.97;4991989;28;20038;-51
2021/03/25 04:07:19;;;;;;;100.25;43.40;;;;;;;1.11;100.00;101112.81;4989707;28;20053;-52
2021/03/25 04:09:51;;;;;;;99.15;42.72;;;;;;;0.95;100.00;101118.44;4992393;28;20044;-53
2021/03/25 04:12:37;;;;;;;111.18;45.92;;;;;;;0.90;100.00;101119.75;4990721;28;20057;-50
2021/03/25 04:15:16;;;;;;;110.05;46.95;;;;;;;0.86;100.00;101118.66;4989927;28;20042;-50
2021/03/25 04:17:47;;;;;;;104.63;46.00;;;;;;;1.02;100.00;101120.63;4999171;28;20390;-49
2021/03/25 04:20:21;;;;;;;103.15;45.25;;;;;;;1.06;100.00;101124.22;4977028;28;20105;-53
2021/03/25 04:22:53;;;;;;;103.75;44.03;;;;;;;1.42;100.00;101123.41;4990081;28;20046;-53
2021/03/25 04:25:23;;;;;;;91.68;41.85;;;;;;;1.28;100.00;101122.44;4990336;28;20042;-53
2021/03/25 04:28:02;;;;;;;97.22;41.97;;;;;;;1.46;100.00;101118.66;4989606;28;20054;-53
2021/03/25 04:30:34;;;;;;;97.78;41.33;;;;;;;1.18;100.00;101120.06;4991654;28;20042;-53
2021/03/25 04:33:02;;;;;;;90.10;40.10;;;;;;;1.04;100.00;101120.72;4992553;28;20047;-51
2021/03/25 04:35:29;;;;;;;94.00;43.45;;;;;;;0.99;100.00;101123.81;4996227;28;20046;-53
2021/03/25 04:37:58;;;;;;;103.35;43.35;;;;;;;0.84;100.00;101126.91;4989482;28;20042;-50
2021/03/25 04:40:29;;;;;;;97.10;43.05;;;;;;;0.85;100.00;101121.94;4991277;28;20620;-52
2021/03/25 04:42:56;;;;;;;97.93;42.38;;;;;;;0.98;100.00;101122.06;4989365;28;20046;-54
2021/03/25 04:45:28;;;;;;;103.03;44.38;;;;;;;1.07;100.00;101124.34;4991211;28;20448;-51
2021/03/25 04:48:00;;;;;;;92.68;43.13;;;;;;;1.24;100.00;101120.47;4989711;28;20060;-52
2021/03/25 04:50:36;;;;;;;98.45;45.30;;;;;;;1.17;100.00;101119.19;4992041;28;20049;-50
2021/03/25 04:53:07;;;;;;;;;;;;;;;0.89;100.00;101115.50;4989506;28;20405;-51
2021/03/25 04:55:38;;;;;;;96.35;42.97;;;;;;;1.02;100.00;101120.63;4987245;28;19929;-48
2021/03/25 04:58:11;;;;;;;104.13;44.03;;;;;;;0.81;100.00;101119.09;4992383;28;20397;-49
2021/03/25 05:00:42;;;;;;;113.07;46.63;;;;;;;0.75;100.00;101124.59;4992649;28;20559;-49
2021/03/25 05:03:16;;;;;;;114.15;46.08;;;;;;;0.75;100.00;101122.94;4989634;28;20046;-50
2021/03/25 05:05:43;;;;;;;106.87;47.13;;;;;;;1.00;100.00;101124.69;4992154;28;20053;-49
2021/03/25 05:08:25;;;;;;;109.60;46.20;;;;;;;0.96;100.00;101125.22;4989684;28;20046;-49
2021/03/25 05:11:14;;;;;;;102.60;45.22;;;;;;;0.84;100.00;101125.25;4991603;28;20054;-50
2021/03/25 05:14:00;;;;;;;109.65;47.13;;;;;;;0.82;100.00;101121.72;4989251;28;20504;-45
2021/03/25 05:17:00;;;;;;;102.95;45.13;;;;;;;1.05;100.00;101125.00;4991212;28;20052;-50
2021/03/25 05:20:04;;;;;;;102.30;44.85;;;;;;;0.98;100.00;101133.78;4991006;28;20046;-53
2021/03/25 05:22:43;;;;;;;110.40;47.15;;;;;;;0.94;100.00;101137.72;4991369;28;20077;-50
2021/03/25 05:25:23;;;;;;;102.40;45.40;;;;;;;1.32;100.00;101131.09;4989049;28;20628;-45
2021/03/25 05:28:02;;;;;;;96.20;43.90;;;;;;;1.64;100.00;101136.72;4991765;28;20500;-48
2021/03/25 05:30:33;;;;;;;94.60;42.42;;;;;;;1.41;100.00;101141.84;4991487;28;20039;-48
2021/03/25 05:33:08;;;;;;;88.85;42.50;;;;;;;1.07;100.00;101136.09;4989727;28;20046;-50
2021/03/25 05:35:41;;;;;;;96.35;43.10;;;;;;;1.32;100.00;101142.06;4990835;28;20693;-50
2021/03/25 05:38:09;;;;;;;94.93;41.13;;;;;;;1.58;100.00;101140.50;4989509;28;20054;-49
2021/03/25 05:40:40;;;;;;;91.50;42.72;;;;;;;1.51;100.00;101141.69;4992291;28;20416;-47
2021/03/25 05:43:15;;;;;;;88.05;42.28;;;;;;;1.55;100.00;101141.16;4988499;28;20128;-47
2021/03/25 05:46:04;;;;;;;90.07;42.10;;;;;;;1.92;100.00;101149.56;4990899;28;20136;-47
2021/03/25 05:48:51;;;;;;;88.78;41.63;;;;;;;1.88;100.00;101149.25;4992968;28;20038;-49
2021/03/25 05:51:21;;;;;;;83.22;38.83;;;;;;;1.81;100.00;101142.94;4989574;28;20771;-50
2021/03/25 05:54:24;;;;;;;86.75;41.22;;;;;;;1.63;100.00;101154.31;4991449;28;20066;-51
2021/03/25 05:57:12;;;;;;;93.93;41.20;;;;;;;1.49;100.00;101148.31;4990588;28;20484;-48
2021/03/25 06:00:02;;;;;;;92.57;41.97;;;;;;;1.64;100.00;101154.41;4990533;28;20045;-52
2021/03/25 06:02:44;;;;;;;84.32;40.78;;;;;;;1.84;100.00;101160.78;4991038;28;20416;-45
2021/03/25 06:05:13;;;;;;;79.72;39.95;;;;;;;2.48;99.55;101164.22;4988259;28;20065;-51
2021/03/25 06:08:14;;;;;;;88.40;40.92;;;;;;;2.31;99.26;101163.09;4990509;28;20053;-50
2021/03/25 06:11:18;;;;;;;87.45;40.95;;;;;;;1.85;100.00;101165.09;4990240;28;20507;-48
2021/03/25 06:14:06;;;;;;;90.70;40.20;;;;;;;1.90;100.00;101163.75;4990662;28;20034;-50
2021/03/25 06:16:49;;;;;;;85.43;40.85;;;;;;;2.34;100.00;101167.50;4992176;28;20045;-46
2021/03/25 06:19:33;;;;;;;82.85;40.20;;;;;;;2.99;98.62;101165.84;4988192;28;20879;-51
2021/03/25 06:22:05;;;;;;;83.78;39.78;;;;;;;3.05;98.43;101166.22;4988391;28;20090;-44
2021/03/25 06:24:58;;;;;;;77.47;38.00;;;;;;;3.52;97.64;101168.31;4998760;28;20045;-48
2021/03/25 06:28:10;;;;;;;77.25;37.72;;;;;;;4.11;92.76;101160.88;4997487;28;20076;-47
2021/03/25 06:30:43;;;;;;;66.88;36.03;;;;;;;4.26;93.19;101168.53;4982970;28;20061;-48
2021/03/25 06:33:32;;;;;;;69.30;35.47;;;;;;;4.36;91.00;101173.38;4996996;28;20057;-46
2021/03/25 06:36:14;;;;;;;60.80;32.75;;;;;;;4.70;90.49;101176.16;4997384;28;20060;-46
2021/03/25 06:38:52;;;;;;;69.82;36.03;;;;;;;5.40;87.11;101179.19;4999684;28;20041;-48
2021/03/25 06:41:24;;;;;;;65.78;34.83;;;;;;;6.00;85.61;101170.56;4993197;28;20748;-49
2021/03/25 06:43:57;;;;;;;68.70;36.03;;;;;;;6.19;83.92;101169.84;4993366;28;20053;-51
2021/03/25 06:46:38;;;;;;;65.63;34.67;;;;;;;6.07;84.38;101175.19;5003055;28;20060;-46
2021/03/25 06:49:16;;;;;;;64.55;34.10;;;;;;;6.55;82.85;101178.44;4996692;28;20050;-50
2021/03/25 06:51:42;;;;;;;66.88;34.33;;;;;;;6.86;80.50;101180.84;4992444;28;20056;-48
2021/03/25 06:54:13;;;;;;;58.30;33.40;;;;;;;6.69;82.34;101180.81;4990851;28;20046;-51
2021/03/25 06:56:45;;;;;;;66.82;36.13;;;;;;;7.14;80.29;101187.25;4993286;28;20049;-48
2021/03/25 06:59:19;;;;;;;60.95;34.85;;;;;;;7.82;77.39;101184.47;4993877;28;20046;-53
2021/03/25 07:01:48;;;;;;;61.40;34.17;;;;;;;8.32;75.41;101190.91;4998679;28;20054;-50
2021/03/25 07:04:31;;;;;;;58.42;32.95;;;;;;;9.98;69.49;101197.44;5002902;28;20057;-48
2021/03/25 07:07:05;;;;;;;59.85;33.00;;;;;;;9.60;69.13;101191.78;4993547;28;20056;-50
2021/03/25 07:09:36;;;;;;;62.03;34.97;;;;;;;10.39;66.58;101199.78;4990675;28;20045;-49
2021/03/25 07:12:07;;;;;;;60.35;34.00;;;;;;;11.73;59.78;101192.09;4994366;28;20093;-49
2021/03/25 07:14:40;;;;;;;63.17;34.28;;;;;;;10.02;67.47;101194.16;4993075;28;20046;-51
2021/03/25 07:17:22;;;;;;;59.60;34.30;;;;;;;9.95;67.54;101188.84;4994529;28;20046;-50
2021/03/25 07:19:56;;;;;;;62.00;34.10;;;;;;;10.18;67.42;101192.22;4998773;28;20050;-50
2021/03/25 07:22:31;;;;;;;59.25;33.75;;;;;;;9.88;66.86;101196.22;4995947;28;20054;-49
2021/03/25 07:25:19;;;;;;;67.95;35.08;;;;;;;9.04;71.20;101196.44;4991141;28;21768;-52
2021/03/25 07:27:46;;;;;;;63.80;35.53;;;;;;;8.59;74.80;101203.09;4995798;28;20144;-52
2021/03/25 07:30:46;;;;;;;58.97;33.45;;;;;;;8.78;73.44;101210.72;4996401;28;20085;-49
2021/03/25 07:33:25;;;;;;;66.40;34.72;;;;;;;8.94;71.51;101204.56;4994759;28;20050;-49
2021/03/25 07:36:14;;;;;;;62.17;34.10;;;;;;;8.80;72.79;101205.69;4992902;28;20453;-51
2021/03/25 07:38:42;;;;;;;64.18;35.53;;;;;;;8.47;74.69;101210.25;4993614;28;20045;-53
2021/03/25 07:41:27;;;;;;;58.25;33.75;;;;;;;8.30;76.18;101215.47;4990557;28;20046;-53
2021/03/25 07:44:04;;;;;;;58.50;33.60;;;;;;;8.31;76.18;101209.53;4975345;28;20096;-50
2021/03/25 07:46:32;;;;;;;63.20;33.88;;;;;;;8.19;75.90;101209.03;4992710;28;20057;-51
2021/03/25 07:49:16;;;;;;;64.78;34.85;;;;;;;8.28;75.55;101211.97;4994109;28;20497;-50
2021/03/25 07:52:03;;;;;;;62.88;34.15;;;;;;;8.02;76.11;101225.25;4993045;28;20042;-49
2021/03/25 07:54:39;;;;;;;63.97;34.42;;;;;;;8.68;73.73;101226.44;4996152;28;20042;-47
2021/03/25 07:57:22;;;;;;;63.45;34.92;;;;;;;8.63;74.86;101220.28;4989791;28;20050;-52
2021/03/25 07:59:51;;;;;;;67.97;35.78;;;;;;;8.28;77.53;101224.75;4997765;28;20055;-49
2021/03/25 08:02:27;;;;;;;61.72;35.17;;;;;;;8.33;76.67;101223.25;4991739;28;20081;-51
2021/03/25 08:04:55;;;;;;;67.68;36.58;;;;;;;9.03;74.48;101224.50;4995397;28;20062;-48
2021/03/25 08:07:24;;;;;;;66.57;36.05;;;;;;;8.80;75.94;101221.00;4997963;28;20056;-48
2021/03/25 08:09:58;;;;;;;67.38;35.35;;;;;;;9.45;73.05;101232.97;4990651;28;20050;-45
2021/03/25 08:12:34;;;;;;;63.42;34.63;;;;;;;9.53;73.17;101228.19;4991646;28;20050;-50
2021/03/25 08:15:27;;;;;;;67.55;34.95;;;;;;;9.57;73.54;101233.47;4989657;28;20045;-51
2021/03/25 08:18:00;;;;;;;61.42;34.97;;;;;;;9.63;70.65;101232.81;4982174;28;20094;-52
2021/03/25 08:20:47;;;;;;;61.42;34.33;;;;;;;10.65;69.45;101239.13;4991529;28;20621;-52
2021/03/25 08:24:16;;;;;;;61.55;33.80;;;;;;;11.95;63.88;101248.38;4995607;28;20053;-47
2021/03/25 08:26:58;;;;;;;57.20;33.50;;;;;;;13.75;56.59;101246.09;4934685;28;20057;-46
2021/03/25 08:29:53;;;;;;;62.22;34.25;;;;;;;12.86;59.64;101243.13;4993023;28;20046;-48
2021/03/25 08:32:46;;;;;;;60.28;33.90;;;;;;;13.27;59.13;101256.16;4980063;28;20041;-48
2021/03/25 08:35:22;;;;;;;57.88;33.35;;;;;;;13.24;57.40;101242.38;4994853;28;20049;-47
2021/03/25 08:38:03;;;;;;;58.80;34.17;;;;;;;12.83;59.54;101237.91;4997621;28;20046;-48
2021/03/25 08:40:39;;;;;;;61.35;34.72;;;;;;;12.71;59.30;101241.00;4992556;28;20050;-46
2021/03/25 08:43:14;;;;;;;63.45;37.25;;;;;;;12.63;59.46;101245.97;4992685;28;20094;-46
2021/03/25 08:46:00;;;;;;;62.40;35.67;;;;;;;12.43;59.68;101242.00;4994766;28;20069;-49
2021/03/25 08:48:49;;;;;;;60.30;34.75;;;;;;;12.16;61.44;101234.44;4993873;28;20056;-53
2021/03/25 08:51:23;;;;;;;64.68;36.17;;;;;;;11.73;63.40;101241.69;4994861;28;20483;-50
2021/03/25 08:53:52;;;;;;;63.28;34.17;;;;;;;12.28;62.21;101234.75;4989944;28;20607;-50
2021/03/25 08:56:34;;;;;;;66.38;35.28;;;;;;;11.94;63.16;101236.38;4990160;28;20046;-52
2021/03/25 08:59:14;;;;;;;70.13;36.42;;;;;;;12.13;62.88;101234.31;4990944;28;20054;-51
2021/03/25 09:01:48;;;;;;;64.05;37.10;;;;;;;12.17;62.89;101233.59;4995091;28;20042;-52
2021/03/25 09:04:25;;;;;;;60.95;36.00;;;;;;;12.52;61.80;101239.66;4990669;28;20046;-52
2021/03/25 09:06:52;;;;;;;66.20;37.22;;;;;;;12.37;61.84;101234.13;4993635;28;20073;-47
2021/03/25 09:09:43;;;;;;;62.20;35.85;;;;;;;12.92;61.09;101236.44;4990040;28;20054;-51
2021/03/25 09:12:32;;;;;;;64.03;34.95;;;;;;;13.24;58.78;101241.50;4994763;28;20058;-51
2021/03/25 09:15:01;;;;;;;66.55;35.03;;;;;;;13.61;55.92;101243.22;4989110;28;20141;-53
2021/03/25 09:17:39;;;;;;;60.85;35.65;;;;;;;13.28;57.00;101240.75;4996006;28;20096;-53
2021/03/25 09:20:14;;;;;;;63.88;36.50;;;;;;;13.87;55.86;101246.38;4995484;28;20042;-48
2021/03/25 09:22:57;;;;;;;65.07;37.60;;;;;;;13.77;56.04;101247.00;4998744;28;20050;-49
2021/03/25 09:25:26;;;;;;;71.47;37.03;;;;;;;13.73;56.28;101242.63;5000033;28;20048;-50
2021/03/25 09:28:01;;;;;;;66.13;35.92;;;;;;;14.03;55.39;101244.97;4992941;28;20046;-49
2021/03/25 09:30:51;;;;;;;64.20;38.10;;;;;;;13.87;56.51;101243.78;5002185;28;20065;-51
2021/03/25 09:33:54;;;;;;;73.22;39.40;;;;;;;13.62;57.16;101236.38;4994455;28;20042;-49
2021/03/25 09:36:21;;;;;;;67.72;38.85;;;;;;;14.20;55.63;101240.16;4992207;28;20053;-54
2021/03/25 09:39:09;;;;;;;66.38;37.17;;;;;;;14.45;54.85;101236.34;4991449;28;20052;-50
2021/03/25 09:41:35;;;;;;;;;;;;;;;14.02;55.58;101232.94;4992553;28;20050;-49
2021/03/25 09:44:10;;;;;;;67.60;38.30;;;;;;;14.77;56.22;101224.91;5000604;28;19964;-51
2021/03/25 09:46:59;;;;;;;70.57;39.20;;;;;;;15.73;50.45;101227.28;4997831;28;20481;-54
2021/03/25 09:49:31;;;;;;;71.72;38.38;;;;;;;15.94;52.09;101218.91;4993315;28;20049;-50
2021/03/25 09:52:12;;;;;;;67.13;38.03;;;;;;;16.21;49.66;101223.53;4991933;28;20046;-53
2021/03/25 09:54:54;;;;;;;67.05;38.25;;;;;;;15.57;49.57;101220.97;4990590;28;20056;-48
2021/03/25 09:57:37;;;;;;;67.10;38.70;;;;;;;15.66;51.33;101221.13;4996635;28;20049;-52
2021/03/25 10:00:21;;;;;;;65.82;37.42;;;;;;;15.76;50.47;101224.72;4993962;28;20081;-46
2021/03/25 10:02:50;;;;;;;70.40;39.47;;;;;;;14.63;51.52;101210.06;4997094;28;20058;-49
2021/03/25 10:08:12;;;;;;;68.22;37.60;;;;;;;16.59;49.15;101225.66;4993749;28;20068;-51
2021/03/25 10:10:43;;;;;;;;;;;;;;;16.57;48.58;101227.38;4993851;28;20052;-47
2021/03/25 10:13:16;;;;;;;68.00;36.92;;;;;;;16.51;48.82;101223.88;4992873;28;20641;-53
2021/03/25 10:15:47;;;;;;;65.32;37.45;;;;;;;19.05;42.69;101235.53;4994257;28;20077;-50
2021/03/25 10:18:17;;;;;;;66.95;38.83;;;;;;;19.41;42.39;101233.72;4997564;28;20050;-49
2021/03/25 10:20:45;;;;;;;68.80;38.60;;;;;;;20.92;38.34;101233.91;4997963;28;20570;-51
2021/03/25 10:23:25;;;;;;;65.47;40.47;;;;;;;20.20;38.75;101232.63;4993559;28;20043;-48
2021/03/25 10:26:27;;;;;;;67.82;41.28;;;;;;;19.06;39.56;101233.78;4996549;28;20085;-52
2021/03/25 10:28:57;;;;;;;63.17;39.70;;;;;;;22.86;33.88;101235.03;4993911;28;20061;-54
2021/03/25 10:31:28;;;;;;;68.38;41.92;;;;;;;22.75;32.85;101231.75;4993113;28;20050;-54
2021/03/25 10:34:03;;;;;;;65.63;40.65;;;;;;;24.00;31.76;101240.84;4991802;28;20058;-47
2021/03/25 10:36:53;;;;;;;64.45;38.63;;;;;;;25.97;28.44;101243.78;4994921;28;20065;-52
2021/03/25 10:39:24;;;;;;;64.28;42.03;;;;;;;25.26;29.58;101237.00;4991028;28;20046;-52
2021/03/25 10:41:52;;;;;;;65.47;41.28;;;;;;;23.95;30.00;101229.59;4992021;28;20451;-52
2021/03/25 10:44:39;;;;;;;68.47;41.33;;;;;;;25.16;29.04;101237.28;4989880;28;20065;-51
2021/03/25 10:47:16;;;;;;;60.55;41.60;;;;;;;26.42;26.54;101230.16;4990860;28;20051;-50
2021/03/25 10:49:50;;;;;;;63.90;40.88;;;;;;;26.12;28.12;101224.97;4993679;28;20049;-50
2021/03/25 10:52:37;;;;;;;64.57;42.40;;;;;;;24.41;31.08;101212.91;4993343;28;20050;-49
2021/03/25 10:55:11;;;;;;;67.05;41.38;;;;;;;24.49;30.51;101222.28;4993495;28;20125;-49
2021/03/25 10:57:38;;;;;;;65.45;41.85;;;;;;;25.88;26.84;101228.28;5000056;28;20583;-50
2021/03/25 11:00:16;;;;;;;69.13;43.05;;;;;;;24.83;29.58;101217.09;4997246;28;20061;-52
2021/03/25 11:02:44;;;;;;;70.18;44.80;;;;;;;25.23;28.11;101220.47;5000022;28;20054;-51
2021/03/25 11:05:30;;;;;;;62.45;41.17;;;;;;;26.92;26.63;101225.06;4999576;28;20135;-52
2021/03/25 11:08:03;;;;;;;61.80;41.90;;;;;;;26.41;27.41;101220.56;4997638;28;20042;-51
2021/03/25 11:10:38;;;;;;;62.67;41.72;;;;;;;27.35;24.81;101226.22;5002734;28;20137;-52
2021/03/25 11:13:19;;;;;;;66.07;44.20;;;;;;;26.08;26.06;101223.34;4998307;28;20042;-50
2021/03/25 11:15:54;;;;;;;67.70;43.25;;;;;;;25.32;27.27;101217.59;4993479;28;20042;-53
2021/03/25 11:18:52;;;;;;;67.53;42.95;;;;;;;26.14;26.53;101217.88;4993383;28;20133;-51
2021/03/25 11:21:32;;;;;;;62.72;40.50;;;;;;;26.17;26.32;101216.94;4994759;28;20069;-52
2021/03/25 11:24:04;;;;;;;62.88;41.67;;;;;;;24.74;28.10;101203.38;4993864;28;20072;-52
2021/03/25 11:26:31;;;;;;;69.18;42.92;;;;;;;25.88;25.80;101212.53;4993701;28;20118;-51
2021/03/25 11:28:58;;;;;;;67.18;41.88;;;;;;;26.41;26.79;101212.69;4998720;28;20065;-48
2021/03/25 11:31:29;;;;;;;62.63;40.60;;;;;;;25.76;27.77;101210.31;5000583;28;20178;-50
2021/03/25 11:33:57;;;;;;;60.38;38.05;;;;;;;25.88;26.84;101218.69;4995431;28;20045;-49
2021/03/25 11:36:38;;;;;;;59.05;39.75;;;;;;;24.44;28.80;101207.59;4999081;28;20125;-49
2021/03/25 11:39:11;;;;;;;63.80;40.75;;;;;;;24.08;28.86;101202.25;4997682;28;20092;-50
2021/03/25 11:41:37;;;;;;;62.65;39.45;;;;;;;23.53;31.08;101196.41;5000691;28;20048;-47
2021/03/25 11:44:06;;;;;;;57.72;38.83;;;;;;;25.08;26.58;101206.88;4994321;28;20053;-51
2021/03/25 11:46:37;;;;;;;61.55;40.15;;;;;;;25.00;28.53;101200.94;4993543;28;20491;-49
2021/03/25 11:49:15;;;;;;;60.85;40.53;;;;;;;25.32;29.02;101201.88;4990177;28;20146;-53
2021/03/25 11:51:59;;;;;;;59.28;39.42;;;;;;;24.93;29.12;101191.53;5000860;28;20057;-53
2021/03/25 11:54:37;;;;;;;64.32;42.97;;;;;;;24.60;28.77;101190.63;4997678;28;20425;-50
2021/03/25 11:57:22;;;;;;;64.70;40.95;;;;;;;25.24;28.84;101196.88;4997001;28;20520;-50